createdAt,value
2019-02-02T00:00:38.253Z,41.50
2019-02-02T00:01:37.724Z,42.70
2019-02-02T00:02:37.435Z,44.30
2019-02-02T00:03:37.471Z,45.40
2019-02-02T00:04:37.842Z,44.00
2019-02-02T00:05:37.661Z,43.80
2019-02-02T00:06:37.456Z,44.30
2019-02-02T00:07:37.459Z,44.10
2019-02-02T00:08:38.146Z,44.90
2019-02-02T00:09:37.466Z,45.20
2019-02-02T00:10:38.239Z,45.00
2019-02-02T00:11:37.479Z,45.60
2019-02-02T00:12:37.757Z,46.50
2019-02-02T00:13:37.475Z,46.20
2019-02-02T00:14:37.580Z,45.10
2019-02-02T00:15:37.470Z,46.20
2019-02-02T00:16:37.503Z,46.90
2019-02-02T00:17:37.503Z,48.10
2019-02-02T00:18:37.477Z,46.80
2019-02-02T00:19:37.478Z,47.90
2019-02-02T00:20:37.498Z,47.60
2019-02-02T00:21:37.785Z,47.40
2019-02-02T00:22:37.858Z,47.50
2019-02-02T00:23:37.529Z,47.90
2019-02-02T00:24:37.528Z,49.20
2019-02-02T00:25:37.507Z,48.40
2019-02-02T00:26:37.498Z,49.30
2019-02-02T00:27:41.615Z,50.40
2019-02-02T00:28:37.505Z,50.20
2019-02-02T00:29:37.552Z,48.50
2019-02-02T00:30:37.525Z,49.50
2019-02-02T00:31:37.544Z,49.20
2019-02-02T00:32:37.541Z,49.80
2019-02-02T00:33:37.548Z,48.80
2019-02-02T00:34:37.557Z,50.10
2019-02-02T00:35:37.553Z,50.00
2019-02-02T00:36:37.519Z,49.60
2019-02-02T00:37:37.569Z,48.80
2019-02-02T00:38:37.541Z,51.40
2019-02-02T00:39:37.534Z,49.80
2019-02-02T00:40:37.539Z,50.40
2019-02-02T00:41:37.552Z,49.60
2019-02-02T00:42:37.551Z,50.40
2019-02-02T00:43:38.550Z,50.70
2019-02-02T00:44:37.535Z,48.90
2019-02-02T00:45:37.562Z,50.90
2019-02-02T00:46:37.532Z,51.90
2019-02-02T00:47:37.556Z,53.40
2019-02-02T00:48:37.605Z,52.80
2019-02-02T00:49:37.552Z,50.60
2019-02-02T00:50:37.557Z,52.10
2019-02-02T00:51:37.578Z,53.00
2019-02-02T00:52:37.633Z,52.70
2019-02-02T00:53:37.624Z,52.90
2019-02-02T00:54:37.564Z,52.20
2019-02-02T00:55:37.596Z,53.80
2019-02-02T00:56:37.566Z,53.20
2019-02-02T00:57:37.570Z,53.10
2019-02-02T00:58:37.570Z,54.10
2019-02-02T00:59:37.619Z,54.10
2019-02-02T01:00:37.585Z,54.30
2019-02-02T01:01:37.577Z,55.30
2019-02-02T01:02:37.585Z,54.30
2019-02-02T01:03:37.589Z,56.70
2019-02-02T01:04:37.614Z,56.10
2019-02-02T01:05:37.791Z,56.40
2019-02-02T01:06:37.613Z,56.80
2019-02-02T01:07:37.614Z,57.80
2019-02-02T01:08:37.597Z,58.90
2019-02-02T01:09:37.587Z,57.40
2019-02-02T01:10:38.084Z,59.60
2019-02-02T01:11:37.604Z,58.60
2019-02-02T01:12:37.603Z,65.10
2019-02-02T01:13:37.618Z,64.50
2019-02-02T01:14:37.678Z,60.00
2019-02-02T01:15:37.618Z,60.00
2019-02-02T01:16:37.638Z,62.20
2019-02-02T01:17:37.604Z,60.40
2019-02-02T01:18:37.799Z,59.10
2019-02-02T01:19:37.617Z,61.50
2019-02-02T01:20:37.688Z,60.80
2019-02-02T01:21:37.709Z,60.70
2019-02-02T01:22:37.794Z,65.00
2019-02-02T01:23:37.663Z,61.80
2019-02-02T01:24:37.653Z,63.70
2019-02-02T01:25:37.691Z,63.80
2019-02-02T01:26:37.647Z,63.10
2019-02-02T01:27:37.763Z,60.60
2019-02-02T01:28:37.669Z,61.50
2019-02-02T01:29:37.649Z,60.90
2019-02-02T01:30:37.639Z,63.00
2019-02-02T01:31:37.792Z,64.30
2019-02-02T01:32:37.672Z,63.30
2019-02-02T01:33:37.662Z,63.90
2019-02-02T01:34:37.681Z,64.40
2019-02-02T01:35:37.696Z,67.20
2019-02-02T01:36:37.683Z,64.70
2019-02-02T01:37:37.660Z,63.50
2019-02-02T01:38:37.692Z,63.70
2019-02-02T01:39:37.692Z,63.50
2019-02-02T01:40:37.672Z,65.40
2019-02-02T01:41:37.727Z,64.60
2019-02-02T01:42:37.672Z,65.80
2019-02-02T01:43:37.744Z,67.50
2019-02-02T01:44:37.708Z,66.60
2019-02-02T01:45:37.725Z,65.70
2019-02-02T01:46:37.712Z,66.80
2019-02-02T01:47:37.696Z,67.90
2019-02-02T01:48:37.738Z,68.30
2019-02-02T01:49:37.729Z,67.50
2019-02-02T01:50:37.710Z,66.70
2019-02-02T01:51:37.690Z,65.30
2019-02-02T01:52:37.727Z,68.40
2019-02-02T01:53:37.732Z,67.00
2019-02-02T01:54:38.413Z,67.50
2019-02-02T01:55:37.728Z,66.90
2019-02-02T01:56:37.739Z,68.50
2019-02-02T01:57:37.730Z,69.00
2019-02-02T01:58:37.769Z,68.20
2019-02-02T01:59:37.717Z,68.10
2019-02-02T02:00:37.700Z,69.60
2019-02-02T02:01:37.724Z,68.80
2019-02-02T02:02:37.736Z,70.00
2019-02-02T02:03:37.759Z,69.20
2019-02-02T02:04:37.749Z,71.10
2019-02-02T02:05:37.815Z,71.70
2019-02-02T02:06:37.736Z,72.30
2019-02-02T02:07:37.761Z,70.40
2019-02-02T02:08:37.732Z,70.30
2019-02-02T02:09:37.868Z,74.20
2019-02-02T02:10:37.762Z,72.90
2019-02-02T02:11:37.734Z,71.50
2019-02-02T02:12:37.777Z,73.30
2019-02-02T02:13:37.746Z,71.40
2019-02-02T02:14:37.756Z,71.50
2019-02-02T02:15:37.790Z,71.30
2019-02-02T02:16:37.821Z,74.00
2019-02-02T02:17:37.770Z,74.40
2019-02-02T02:18:37.776Z,74.70
2019-02-02T02:19:37.779Z,72.30
2019-02-02T02:20:37.823Z,74.40
2019-02-02T02:21:37.784Z,73.00
2019-02-02T02:22:41.233Z,73.40
2019-02-02T02:23:37.799Z,76.90
2019-02-02T02:24:37.779Z,74.60
2019-02-02T02:25:37.766Z,74.90
2019-02-02T02:26:37.818Z,77.30
2019-02-02T02:27:37.787Z,74.10
2019-02-02T02:28:37.762Z,77.90
2019-02-02T02:29:37.781Z,74.70
2019-02-02T02:30:37.820Z,77.60
2019-02-02T02:31:37.826Z,78.20
2019-02-02T02:32:37.782Z,74.70
2019-02-02T02:33:37.788Z,77.90
2019-02-02T02:34:37.795Z,77.60
2019-02-02T02:35:37.830Z,77.80
2019-02-02T02:36:37.803Z,77.70
2019-02-02T02:37:37.847Z,78.30
2019-02-02T02:38:37.853Z,77.90
2019-02-02T02:39:37.833Z,76.50
2019-02-02T02:40:37.930Z,76.80
2019-02-02T02:41:37.851Z,76.60
2019-02-02T02:42:37.804Z,79.30
2019-02-02T02:43:37.803Z,82.50
2019-02-02T02:44:37.844Z,79.60
2019-02-02T02:45:37.857Z,78.00
2019-02-02T02:46:37.815Z,78.40
2019-02-02T02:47:37.837Z,81.00
2019-02-02T02:48:37.838Z,82.30
2019-02-02T02:49:37.837Z,79.70
2019-02-02T02:50:37.849Z,79.70
2019-02-02T02:51:37.852Z,79.60
2019-02-02T02:52:37.850Z,78.00
2019-02-02T02:53:37.860Z,82.60
2019-02-02T02:54:37.862Z,79.90
2019-02-02T02:55:37.836Z,82.30
2019-02-02T02:56:37.845Z,83.80
2019-02-02T02:57:37.851Z,78.70
2019-02-02T02:58:41.607Z,77.00
2019-02-02T02:59:37.869Z,80.30
2019-02-02T03:00:37.850Z,79.70
2019-02-02T03:01:37.869Z,80.40
2019-02-02T03:02:37.853Z,78.90
2019-02-02T03:03:37.850Z,80.70
2019-02-02T03:04:37.882Z,79.90
2019-02-02T03:05:37.904Z,79.80
2019-02-02T03:06:37.887Z,81.20
2019-02-02T03:07:37.867Z,78.40
2019-02-02T03:08:37.867Z,80.30
2019-02-02T03:09:37.863Z,82.50
2019-02-02T03:10:37.888Z,83.20
2019-02-02T03:11:37.907Z,82.30
2019-02-02T03:12:37.884Z,84.40
2019-02-02T03:13:37.904Z,82.20
2019-02-02T03:14:37.877Z,83.30
2019-02-02T03:15:37.913Z,80.50
2019-02-02T03:16:37.874Z,80.80
2019-02-02T03:17:37.882Z,82.20
2019-02-02T03:18:37.969Z,84.10
2019-02-02T03:19:37.891Z,80.40
2019-02-02T03:20:37.890Z,77.80
2019-02-02T03:21:37.920Z,80.30
2019-02-02T03:22:37.918Z,84.60
2019-02-02T03:23:38.030Z,83.30
2019-02-02T03:24:37.933Z,80.30
2019-02-02T03:25:37.937Z,81.10
2019-02-02T03:26:37.904Z,80.90
2019-02-02T03:27:37.913Z,81.30
2019-02-02T03:28:37.891Z,80.00
2019-02-02T03:29:37.931Z,80.80
2019-02-02T03:30:37.978Z,80.00
2019-02-02T03:31:38.132Z,75.60
2019-02-02T03:32:37.958Z,79.20
2019-02-02T03:33:37.912Z,81.40
2019-02-02T03:34:37.915Z,80.40
2019-02-02T03:35:37.904Z,80.40
2019-02-02T03:36:37.953Z,81.00
2019-02-02T03:37:37.937Z,81.30
2019-02-02T03:38:37.939Z,83.10
2019-02-02T03:39:37.924Z,83.00
2019-02-02T03:40:37.922Z,81.40
2019-02-02T03:41:37.939Z,81.60
2019-02-02T03:42:37.944Z,81.80
2019-02-02T03:43:38.029Z,79.00
2019-02-02T03:44:37.932Z,81.80
2019-02-02T03:45:40.640Z,80.00
2019-02-02T03:46:37.935Z,82.10
2019-02-02T03:47:37.977Z,82.50
2019-02-02T03:48:37.946Z,80.90
2019-02-02T03:49:37.954Z,85.00
2019-02-02T03:50:37.986Z,83.80
2019-02-02T03:51:37.970Z,83.40
2019-02-02T03:52:37.966Z,78.60
2019-02-02T03:53:41.003Z,82.50
2019-02-02T03:54:37.952Z,82.20
2019-02-02T03:55:37.955Z,82.80
2019-02-02T03:56:37.960Z,82.60
2019-02-02T03:57:37.955Z,82.30
2019-02-02T03:58:37.973Z,80.70
2019-02-02T03:59:37.966Z,82.00
2019-02-02T04:00:37.978Z,84.80
2019-02-02T04:01:37.972Z,81.90
2019-02-02T04:02:37.983Z,81.90
2019-02-02T04:03:38.038Z,82.40
2019-02-02T04:04:37.968Z,81.50
2019-02-02T04:05:37.966Z,80.80
2019-02-02T04:06:37.973Z,81.90
2019-02-02T04:07:37.987Z,81.30
2019-02-02T04:08:37.977Z,83.10
2019-02-02T04:09:37.993Z,83.50
2019-02-02T04:10:37.982Z,82.60
2019-02-02T04:11:38.032Z,85.00
2019-02-02T04:12:37.997Z,82.70
2019-02-02T04:13:38.005Z,87.20
2019-02-02T04:14:38.007Z,79.20
2019-02-02T04:15:37.992Z,81.30
2019-02-02T04:16:37.982Z,83.30
2019-02-02T04:17:37.989Z,83.50
2019-02-02T04:18:38.047Z,77.60
2019-02-02T04:19:38.041Z,83.50
2019-02-02T04:20:38.014Z,83.50
2019-02-02T04:21:38.017Z,81.50
2019-02-02T04:22:38.008Z,79.10
2019-02-02T04:23:38.013Z,81.50
2019-02-02T04:24:38.001Z,80.30
2019-02-02T04:25:38.068Z,80.60
2019-02-02T04:26:38.007Z,78.70
2019-02-02T04:27:38.009Z,82.90
2019-02-02T04:28:38.025Z,81.80
2019-02-02T04:29:38.034Z,81.40
2019-02-02T04:30:38.034Z,80.00
2019-02-02T04:31:38.041Z,79.30
2019-02-02T04:32:38.056Z,79.10
2019-02-02T04:33:38.083Z,80.00
2019-02-02T04:34:38.054Z,80.90
2019-02-02T04:35:38.278Z,81.50
2019-02-02T04:36:38.072Z,79.50
2019-02-02T04:37:38.432Z,81.40
2019-02-02T04:38:38.053Z,77.70
2019-02-02T04:39:38.083Z,80.90
2019-02-02T04:40:38.050Z,80.90
2019-02-02T04:41:38.099Z,79.70
2019-02-02T04:42:38.149Z,80.80
2019-02-02T04:43:38.041Z,79.70
2019-02-02T04:44:38.044Z,79.70
2019-02-02T04:45:38.150Z,80.80
2019-02-02T04:46:38.076Z,81.70
2019-02-02T04:47:38.089Z,80.80
2019-02-02T04:48:38.076Z,79.90
2019-02-02T04:49:38.071Z,79.80
2019-02-02T04:50:40.040Z,80.00
2019-02-02T04:51:38.071Z,80.20
2019-02-02T04:52:38.082Z,77.20
2019-02-02T04:53:38.048Z,78.50
2019-02-02T04:54:38.121Z,81.70
2019-02-02T04:55:38.074Z,82.20
2019-02-02T04:56:38.129Z,81.30
2019-02-02T04:57:38.115Z,83.30
2019-02-02T04:58:38.083Z,80.60
2019-02-02T04:59:38.074Z,79.30
2019-02-02T05:00:38.102Z,79.60
2019-02-02T05:01:38.084Z,79.30
2019-02-02T05:02:38.090Z,81.10
2019-02-02T05:03:38.163Z,81.70
2019-02-02T05:04:38.079Z,80.60
2019-02-02T05:05:38.082Z,81.70
2019-02-02T05:06:38.095Z,79.00
2019-02-02T05:07:38.119Z,83.70
2019-02-02T05:08:38.108Z,79.80
2019-02-02T05:09:38.098Z,80.00
2019-02-02T05:10:38.128Z,79.40
2019-02-02T05:11:38.133Z,80.60
2019-02-02T05:12:38.123Z,83.60
2019-02-02T05:13:38.186Z,79.20
2019-02-02T05:14:38.126Z,81.40
2019-02-02T05:15:38.105Z,81.80
2019-02-02T05:16:38.108Z,81.70
2019-02-02T05:17:38.163Z,80.90
2019-02-02T05:18:38.170Z,82.00
2019-02-02T05:19:38.125Z,80.00
2019-02-02T05:20:38.143Z,80.00
2019-02-02T05:21:38.150Z,81.70
2019-02-02T05:22:38.284Z,81.80
2019-02-02T05:23:38.310Z,79.70
2019-02-02T05:24:38.350Z,82.20
2019-02-02T05:25:38.121Z,82.60
2019-02-02T05:26:38.193Z,81.90
2019-02-02T05:27:38.131Z,79.20
2019-02-02T05:28:38.260Z,80.30
2019-02-02T05:29:41.664Z,80.60
2019-02-02T05:30:38.173Z,79.10
2019-02-02T05:31:38.175Z,80.20
2019-02-02T05:32:38.161Z,80.70
2019-02-02T05:33:38.162Z,78.60
2019-02-02T05:34:38.159Z,81.70
2019-02-02T05:35:38.182Z,80.30
2019-02-02T05:36:38.129Z,80.40
2019-02-02T05:37:38.322Z,78.60
2019-02-02T05:38:38.227Z,77.50
2019-02-02T05:39:38.697Z,80.60
2019-02-02T05:40:38.217Z,80.40
2019-02-02T05:41:38.179Z,78.60
2019-02-02T05:42:38.334Z,77.50
2019-02-02T05:43:38.444Z,78.60
2019-02-02T05:44:38.198Z,75.90
2019-02-02T05:45:38.785Z,78.30
2019-02-02T05:46:38.688Z,75.70
2019-02-02T05:47:38.172Z,76.90
2019-02-02T05:48:38.880Z,76.80
2019-02-02T05:49:38.302Z,77.00
2019-02-02T05:50:38.386Z,77.50
2019-02-02T05:51:38.461Z,78.70
2019-02-02T05:52:38.504Z,78.70
2019-02-02T05:53:38.270Z,77.10
2019-02-02T05:54:38.210Z,77.80
2019-02-02T05:55:38.374Z,77.30
2019-02-02T05:56:38.227Z,77.70
2019-02-02T05:57:38.287Z,78.40
2019-02-02T05:58:38.208Z,77.90
2019-02-02T05:59:38.215Z,79.00
2019-02-02T06:00:38.411Z,79.80
2019-02-02T06:01:38.452Z,79.50
2019-02-02T06:02:38.267Z,79.00
2019-02-02T06:03:38.198Z,76.30
2019-02-02T06:04:38.204Z,76.00
2019-02-02T06:05:38.227Z,77.10
2019-02-02T06:06:38.204Z,78.20
2019-02-02T06:07:38.214Z,77.80
2019-02-02T06:08:38.204Z,74.70
2019-02-02T06:09:38.211Z,77.00
2019-02-02T06:10:38.221Z,76.90
2019-02-02T06:11:38.238Z,77.50
2019-02-02T06:12:38.445Z,76.60
2019-02-02T06:13:38.227Z,79.00
2019-02-02T06:14:38.212Z,77.00
2019-02-02T06:15:38.223Z,77.00
2019-02-02T06:16:38.239Z,79.10
2019-02-02T06:17:38.246Z,76.60
2019-02-02T06:18:38.247Z,78.80
2019-02-02T06:19:38.286Z,78.90
2019-02-02T06:20:38.231Z,78.30
2019-02-02T06:21:38.311Z,78.20
2019-02-02T06:22:38.253Z,76.20
2019-02-02T06:23:38.271Z,75.60
2019-02-02T06:24:38.230Z,75.90
2019-02-02T06:25:38.238Z,75.50
2019-02-02T06:26:38.275Z,75.90
2019-02-02T06:27:38.291Z,76.10
2019-02-02T06:28:38.315Z,76.40
2019-02-02T06:29:38.256Z,74.40
2019-02-02T06:30:38.287Z,78.50
2019-02-02T06:31:38.251Z,76.50
2019-02-02T06:32:38.245Z,76.70
2019-02-02T06:33:38.371Z,75.80
2019-02-02T06:34:38.256Z,75.00
2019-02-02T06:35:38.297Z,75.10
2019-02-02T06:36:38.309Z,75.50
2019-02-02T06:37:38.296Z,73.80
2019-02-02T06:38:38.324Z,76.70
2019-02-02T06:39:38.276Z,75.70
2019-02-02T06:40:38.303Z,75.80
2019-02-02T06:41:38.274Z,75.00
2019-02-02T06:42:38.290Z,75.60
2019-02-02T06:43:38.298Z,75.60
2019-02-02T06:44:38.779Z,76.20
2019-02-02T06:45:38.318Z,73.60
2019-02-02T06:46:43.655Z,76.30
2019-02-02T06:47:38.326Z,75.00
2019-02-02T06:48:38.322Z,73.90
2019-02-02T06:49:38.324Z,74.10
2019-02-02T06:50:38.334Z,74.00
2019-02-02T06:51:38.327Z,77.60
2019-02-02T06:52:38.320Z,74.40
2019-02-02T06:53:38.360Z,76.30
2019-02-02T06:54:38.373Z,74.40
2019-02-02T06:55:38.290Z,75.60
2019-02-02T06:56:38.311Z,74.00
2019-02-02T06:57:38.337Z,75.10
2019-02-02T06:58:38.321Z,77.10
2019-02-02T06:59:38.362Z,75.20
2019-02-02T07:00:38.400Z,77.70
2019-02-02T07:01:38.370Z,78.00
2019-02-02T07:02:38.338Z,78.70
2019-02-02T07:03:38.373Z,76.10
2019-02-02T07:04:38.411Z,79.00
2019-02-02T07:05:38.412Z,79.40
2019-02-02T07:06:38.330Z,79.60
2019-02-02T07:07:38.423Z,78.50
2019-02-02T07:08:38.330Z,77.30
2019-02-02T07:09:38.349Z,76.60
2019-02-02T07:10:38.405Z,76.80
2019-02-02T07:11:38.407Z,74.70
2019-02-02T07:12:38.348Z,75.20
2019-02-02T07:13:38.373Z,73.70
2019-02-02T07:14:38.354Z,75.30
2019-02-02T07:15:38.391Z,77.30
2019-02-02T07:16:38.388Z,75.10
2019-02-02T07:17:38.417Z,74.30
2019-02-02T07:18:38.387Z,74.90
2019-02-02T07:19:38.353Z,73.60
2019-02-02T07:20:38.363Z,74.20
2019-02-02T07:21:38.361Z,76.20
2019-02-02T07:22:38.422Z,72.70
2019-02-02T07:23:39.180Z,76.80
2019-02-02T07:24:38.375Z,77.10
2019-02-02T07:25:38.514Z,77.90
2019-02-02T07:26:38.353Z,77.20
2019-02-02T07:27:38.455Z,76.20
2019-02-02T07:28:38.448Z,76.70
2019-02-02T07:29:38.462Z,77.30
2019-02-02T07:30:38.429Z,77.60
2019-02-02T07:31:38.389Z,93.30
2019-02-02T07:32:38.400Z,75.80
2019-02-02T07:33:39.319Z,74.30
2019-02-02T07:34:38.442Z,77.40
2019-02-02T07:35:38.510Z,74.60
2019-02-02T07:36:38.398Z,76.00
2019-02-02T07:37:38.432Z,76.30
2019-02-02T08:07:55.376Z,73.60
2019-02-02T08:08:55.387Z,74.30
2019-02-02T08:09:55.573Z,74.00
2019-02-02T08:10:55.463Z,75.60
2019-02-02T08:11:55.366Z,73.70
2019-02-02T08:12:55.363Z,75.20
2019-02-02T08:13:55.381Z,73.60
2019-02-02T08:14:55.370Z,72.50
2019-02-02T08:15:55.410Z,73.70
2019-02-02T08:16:55.383Z,77.30
2019-02-02T08:17:55.407Z,75.90
2019-02-02T08:18:55.425Z,76.40
2019-02-02T08:19:55.407Z,74.40
2019-02-02T08:20:55.583Z,74.50
2019-02-02T08:21:55.374Z,76.20
2019-02-02T08:22:56.586Z,74.70
2019-02-02T08:23:55.399Z,76.60
2019-02-02T08:24:55.408Z,73.10
2019-02-02T08:25:56.323Z,74.90
2019-02-02T08:26:56.226Z,71.70
2019-02-02T08:27:55.371Z,73.50
2019-02-02T08:28:55.411Z,74.70
2019-02-02T08:29:55.418Z,75.40
2019-02-02T08:30:55.388Z,73.20
2019-02-02T08:31:55.423Z,76.30
2019-02-02T08:32:55.416Z,75.30
2019-02-02T08:33:55.398Z,71.10
2019-02-02T08:34:56.959Z,71.90
2019-02-02T08:35:55.529Z,72.90
2019-02-02T08:36:55.437Z,72.20
2019-02-02T08:37:55.391Z,73.80
2019-02-02T08:38:55.438Z,73.20
2019-02-02T08:39:55.407Z,72.80
2019-02-02T08:40:55.442Z,71.80
2019-02-02T08:41:55.422Z,73.10
2019-02-02T08:42:55.412Z,73.20
2019-02-02T08:43:55.429Z,73.60
2019-02-02T08:44:55.430Z,73.10
2019-02-02T08:45:55.480Z,71.10
2019-02-02T08:46:55.450Z,73.80
2019-02-02T08:47:55.461Z,73.60
2019-02-02T08:48:55.554Z,71.60
2019-02-02T08:49:55.432Z,70.40
2019-02-02T08:50:55.490Z,69.40
2019-02-02T08:51:55.477Z,72.20
2019-02-02T08:52:55.764Z,70.90
2019-02-02T08:53:55.505Z,70.90
2019-02-02T08:54:55.492Z,74.10
2019-02-02T08:55:55.481Z,70.20
2019-02-02T08:56:55.568Z,74.60
2019-02-02T08:57:55.522Z,73.30
2019-02-02T08:58:55.479Z,71.00
2019-02-02T08:59:55.504Z,74.00
2019-02-02T09:01:03.842Z,72.00
2019-02-02T09:01:55.498Z,70.90
2019-02-02T09:02:55.472Z,73.30
2019-02-02T09:03:55.558Z,71.30
2019-02-02T09:04:55.498Z,73.10
2019-02-02T09:05:55.485Z,74.70
2019-02-02T09:06:55.486Z,73.50
2019-02-02T09:07:55.554Z,75.30
2019-02-02T09:08:55.504Z,71.70
2019-02-02T09:10:55.619Z,74.50
2019-02-02T09:11:55.532Z,72.70
2019-02-02T09:12:55.856Z,72.20
2019-02-02T09:13:55.548Z,72.40
2019-02-02T09:14:55.527Z,74.20
2019-02-02T09:15:55.598Z,75.80
2019-02-02T09:16:55.503Z,75.50
2019-02-02T09:17:55.503Z,76.50
2019-02-02T09:18:55.556Z,75.70
2019-02-02T09:19:55.510Z,73.40
2019-02-02T09:20:55.532Z,71.50
2019-02-02T09:21:55.567Z,70.90
2019-02-02T09:23:03.855Z,71.40
2019-02-02T09:23:55.603Z,72.70
2019-02-02T09:24:55.542Z,74.10
2019-02-02T09:25:55.512Z,72.10
2019-02-02T09:26:55.512Z,72.50
2019-02-02T09:27:55.520Z,75.00
2019-02-02T09:28:55.647Z,75.30
2019-02-02T09:29:55.553Z,73.90
2019-02-02T09:30:55.598Z,75.80
2019-02-02T09:31:55.565Z,74.20
2019-02-02T09:32:55.734Z,74.90
2019-02-02T09:33:55.594Z,76.90
2019-02-02T09:34:55.624Z,75.10
2019-02-02T09:35:55.605Z,74.50
2019-02-02T09:36:55.558Z,74.00
2019-02-02T09:37:57.308Z,73.10
2019-02-02T09:38:55.595Z,74.00
2019-02-02T09:39:55.723Z,73.40
2019-02-02T09:40:55.619Z,71.70
2019-02-02T09:41:55.720Z,71.50
2019-02-02T09:42:55.597Z,74.00
2019-02-02T09:43:55.588Z,73.50
2019-02-02T09:44:55.585Z,71.00
2019-02-02T09:45:55.708Z,73.90
2019-02-02T09:46:55.571Z,73.30
2019-02-02T09:47:55.647Z,72.10
2019-02-02T09:48:57.822Z,71.20
2019-02-02T09:49:55.608Z,71.30
2019-02-02T09:50:55.634Z,72.20
2019-02-02T09:51:55.602Z,72.80
2019-02-02T09:52:55.608Z,71.90
2019-02-02T09:53:55.595Z,72.10
2019-02-02T09:54:55.684Z,72.00
2019-02-02T09:55:56.311Z,72.20
2019-02-02T09:56:55.684Z,70.90
2019-02-02T09:57:55.756Z,72.20
2019-02-02T09:58:55.599Z,73.80
2019-02-02T09:59:55.651Z,69.20
2019-02-02T10:00:55.628Z,68.80
2019-02-02T10:01:55.669Z,70.50
2019-02-02T10:02:55.631Z,70.60
2019-02-02T10:03:55.693Z,71.20
2019-02-02T10:04:55.639Z,71.10
2019-02-02T10:05:55.677Z,70.50
2019-02-02T10:06:55.668Z,73.30
2019-02-02T10:07:55.663Z,73.00
2019-02-02T10:08:55.630Z,74.60
2019-02-02T10:09:55.669Z,76.10
2019-02-02T10:10:55.724Z,75.70
2019-02-02T10:11:55.647Z,76.10
2019-02-02T10:12:55.680Z,72.20
2019-02-02T10:13:55.643Z,73.80
2019-02-02T10:14:55.646Z,72.30
2019-02-02T10:15:55.700Z,73.70
2019-02-02T10:16:55.799Z,76.00
2019-02-02T10:17:55.713Z,77.20
2019-02-02T10:18:55.691Z,76.70
2019-02-02T10:19:55.682Z,77.40
2019-02-02T10:21:03.729Z,77.80
2019-02-02T10:21:55.714Z,77.50
2019-02-02T10:22:56.269Z,75.60
2019-02-02T10:23:55.739Z,75.80
2019-02-02T10:24:55.713Z,74.70
2019-02-02T10:25:55.683Z,71.90
2019-02-02T10:26:55.697Z,74.00
2019-02-02T10:27:56.833Z,75.80
2019-02-02T10:28:55.789Z,74.90
2019-02-02T10:29:55.735Z,71.90
2019-02-02T10:30:55.967Z,71.30
2019-02-02T10:31:55.727Z,71.40
2019-02-02T10:32:55.724Z,72.00
2019-02-02T10:33:55.776Z,74.60
2019-02-02T10:34:55.729Z,75.80
2019-02-02T10:35:55.721Z,76.10
2019-02-02T10:36:55.708Z,76.10
2019-02-02T10:37:55.712Z,72.10
2019-02-02T10:38:55.767Z,72.70
2019-02-02T10:39:55.769Z,72.00
2019-02-02T10:40:55.729Z,73.80
2019-02-02T10:41:55.899Z,73.70
2019-02-02T10:42:55.806Z,75.60
2019-02-02T10:43:57.062Z,76.80
2019-02-02T10:44:55.916Z,77.30
2019-02-02T10:45:55.763Z,79.90
2019-02-02T10:46:55.901Z,78.00
2019-02-02T10:47:55.804Z,78.20
2019-02-02T10:48:55.781Z,74.80
2019-02-02T10:49:55.852Z,77.30
2019-02-02T10:50:55.806Z,79.80
2019-02-02T10:51:55.809Z,77.80
2019-02-02T10:52:55.826Z,76.50
2019-02-02T10:53:55.890Z,78.80
2019-02-02T10:54:55.828Z,76.90
2019-02-02T10:55:55.789Z,77.40
2019-02-02T10:56:55.952Z,74.80
2019-02-02T10:57:55.854Z,75.30
2019-02-02T10:58:55.816Z,78.70
2019-02-02T10:59:55.829Z,77.40
2019-02-02T11:00:55.924Z,79.50
2019-02-02T11:01:55.838Z,76.40
2019-02-02T11:02:55.926Z,71.60
2019-02-02T11:03:55.842Z,72.90
2019-02-02T11:04:55.866Z,72.90
2019-02-02T11:05:55.917Z,76.10
2019-02-02T11:06:56.019Z,74.20
2019-02-02T11:07:55.884Z,76.00
2019-02-02T11:08:55.863Z,71.20
2019-02-02T11:09:55.824Z,70.00
2019-02-02T11:10:56.013Z,72.90
2019-02-02T11:11:55.861Z,75.70
2019-02-02T11:12:56.062Z,75.70
2019-02-02T11:13:55.913Z,72.50
2019-02-02T11:14:55.950Z,74.40
2019-02-02T11:15:55.873Z,72.80
2019-02-02T11:16:55.965Z,74.80
2019-02-02T11:17:56.026Z,73.80
2019-02-02T11:18:55.934Z,76.00
2019-02-02T11:19:56.119Z,78.20
2019-02-02T11:20:56.130Z,79.40
2019-02-02T11:21:55.865Z,78.90
2019-02-02T11:22:55.972Z,75.60
2019-02-02T11:23:55.925Z,77.00
2019-02-02T11:24:55.933Z,80.10
2019-02-02T11:25:55.901Z,77.80
2019-02-02T11:26:55.966Z,76.50
2019-02-02T11:27:55.925Z,75.80
2019-02-02T11:28:56.071Z,76.40
2019-02-02T11:29:55.950Z,76.60
2019-02-02T11:30:55.895Z,77.90
2019-02-02T11:32:02.475Z,75.90
2019-02-02T11:32:55.902Z,80.50
2019-02-02T11:33:55.942Z,74.00
2019-02-02T11:34:55.922Z,74.10
2019-02-02T11:35:55.912Z,74.40
2019-02-02T11:36:55.963Z,77.10
2019-02-02T11:37:56.022Z,76.70
2019-02-02T11:38:55.951Z,76.40
2019-02-02T11:39:55.914Z,74.10
2019-02-02T11:40:55.918Z,72.70
2019-02-02T11:41:55.942Z,68.80
2019-02-02T11:42:55.923Z,73.70
2019-02-02T11:43:55.943Z,74.00
2019-02-02T11:44:55.936Z,73.60
2019-02-02T11:45:56.028Z,72.70
2019-02-02T11:46:55.954Z,73.00
2019-02-02T11:47:55.952Z,74.20
2019-02-02T11:48:56.057Z,72.90
2019-02-02T11:49:55.957Z,75.60
2019-02-02T11:50:55.955Z,73.70
2019-02-02T11:51:55.982Z,76.30
2019-02-02T11:52:55.982Z,76.40
2019-02-02T11:53:56.005Z,76.50
2019-02-02T11:54:56.009Z,74.50
2019-02-02T11:55:55.993Z,75.10
2019-02-02T11:56:55.982Z,77.10
2019-02-02T11:57:55.983Z,75.30
2019-02-02T11:58:55.978Z,73.00
2019-02-02T11:59:56.086Z,73.60
2019-02-02T12:00:55.989Z,73.80
2019-02-02T12:01:56.103Z,74.00
2019-02-02T12:02:55.994Z,75.10
2019-02-02T12:03:56.018Z,72.80
2019-02-02T12:04:56.028Z,76.40
2019-02-02T12:05:56.195Z,80.10
2019-02-02T12:06:56.249Z,83.50
2019-02-02T12:07:56.018Z,80.30
2019-02-02T12:08:56.061Z,76.80
2019-02-02T12:09:56.025Z,77.00
2019-02-02T12:10:56.060Z,75.00
2019-02-02T12:11:56.066Z,76.00
2019-02-02T12:12:57.294Z,76.00
2019-02-02T12:13:56.075Z,80.00
2019-02-02T12:14:56.982Z,79.20
2019-02-02T12:15:56.067Z,77.30
2019-02-02T12:16:56.107Z,76.60
2019-02-02T12:17:56.080Z,76.50
2019-02-02T12:18:56.083Z,80.20
2019-02-02T12:19:56.085Z,75.70
2019-02-02T12:20:56.214Z,80.60
2019-02-02T12:21:56.223Z,79.50
2019-02-02T12:22:56.294Z,81.40
2019-02-02T12:23:56.076Z,81.10
2019-02-02T12:24:56.071Z,81.00
2019-02-02T12:25:56.261Z,78.70
2019-02-02T12:26:56.059Z,79.30
2019-02-02T12:27:56.070Z,79.50
2019-02-02T12:28:56.141Z,78.30
2019-02-02T12:29:57.912Z,77.80
2019-02-02T12:30:56.067Z,78.60
2019-02-02T12:31:56.119Z,78.00
2019-02-02T12:32:56.083Z,76.90
2019-02-02T12:33:56.079Z,79.70
2019-02-02T12:34:56.260Z,78.70
2019-02-02T12:35:56.293Z,79.30
2019-02-02T12:36:56.205Z,76.90
2019-02-02T12:37:56.195Z,78.10
2019-02-02T12:38:56.092Z,79.50
2019-02-02T12:39:56.229Z,82.30
2019-02-02T12:40:56.121Z,80.90
2019-02-02T12:41:56.106Z,80.70
2019-02-02T12:42:56.189Z,80.10
2019-02-02T12:43:56.153Z,79.10
2019-02-02T12:44:56.925Z,78.00
2019-02-02T12:45:56.136Z,78.40
2019-02-02T12:46:56.125Z,81.30
2019-02-02T12:47:56.157Z,77.30
2019-02-02T12:48:56.130Z,80.60
2019-02-02T12:49:56.263Z,83.90
2019-02-02T12:50:56.177Z,82.10
2019-02-02T12:51:56.138Z,81.00
2019-02-02T12:52:56.143Z,79.60
2019-02-02T12:53:56.142Z,78.80
2019-02-02T12:54:56.230Z,79.40
2019-02-02T12:55:56.161Z,80.20
2019-02-02T12:56:56.163Z,81.80
2019-02-02T12:57:56.179Z,81.30
2019-02-02T12:58:56.167Z,77.80
2019-02-02T12:59:56.904Z,77.70
2019-02-02T13:00:56.191Z,77.90
2019-02-02T13:01:56.201Z,79.50
2019-02-02T13:02:56.194Z,79.80
2019-02-02T13:04:01.818Z,78.40
2019-02-02T13:04:56.984Z,78.60
2019-02-02T13:05:56.325Z,79.80
2019-02-02T13:06:56.223Z,78.00
2019-02-02T13:07:56.227Z,80.40
2019-02-02T13:08:56.270Z,78.50
2019-02-02T13:09:56.242Z,78.80
2019-02-02T13:10:56.461Z,77.70
2019-02-02T13:11:56.321Z,78.60
2019-02-02T13:12:56.252Z,81.80
2019-02-02T13:13:56.234Z,83.90
2019-02-02T13:14:56.913Z,86.40
2019-02-02T13:15:56.293Z,88.40
2019-02-02T13:16:56.360Z,86.30
2019-02-02T13:17:56.256Z,87.20
2019-02-02T13:18:56.320Z,86.00
2019-02-02T13:19:56.270Z,84.40
2019-02-02T13:20:56.250Z,84.80
2019-02-02T13:21:57.293Z,81.20
2019-02-02T13:22:56.277Z,82.70